createdAt,value
2022-12-12T00:00:35.773Z,-1.59
2022-12-12T00:03:21.878Z,-1.56
2022-12-12T00:06:07.530Z,-1.53
2022-12-12T00:08:53.999Z,-1.53
2022-12-12T00:11:40.894Z,-1.52
2022-12-12T00:14:26.451Z,-1.74
2022-12-12T00:17:11.922Z,-1.58
2022-12-12T00:19:57.307Z,-1.59
2022-12-12T00:22:42.845Z,-1.69
2022-12-12T00:25:28.558Z,-1.61
2022-12-12T00:28:14.035Z,-1.53
2022-12-12T00:31:00.269Z,-2.89
2022-12-12T00:33:48.159Z,-1.46
2022-12-12T00:36:33.939Z,-1.44
2022-12-12T00:39:19.741Z,-2.22
2022-12-12T00:42:05.884Z,-2.81
2022-12-12T00:44:51.546Z,-1.82
2022-12-12T00:47:37.428Z,-1.48
2022-12-12T00:50:23.180Z,-1.54
2022-12-12T00:53:09.057Z,-1.50
2022-12-12T00:55:56.779Z,-1.59
2022-12-12T00:58:42.233Z,-1.56
2022-12-12T01:01:30.007Z,-1.93
2022-12-12T01:04:16.245Z,-1.60
2022-12-12T01:07:01.697Z,-2.82
2022-12-12T01:09:47.194Z,-1.63
2022-12-12T01:12:32.820Z,-1.66
2022-12-12T01:15:18.680Z,-2.13
2022-12-12T01:18:04.803Z,-1.56
2022-12-12T01:20:51.504Z,-1.59
2022-12-12T01:23:37.853Z,-1.60
2022-12-12T01:26:24.904Z,-2.95
2022-12-12T01:29:10.287Z,-2.03
2022-12-12T01:31:55.760Z,-2.52
2022-12-12T01:34:41.015Z,-1.67
2022-12-12T01:37:26.598Z,-2.48
2022-12-12T01:40:31.734Z,-2.35
2022-12-12T01:43:19.093Z,-2.89
2022-12-12T01:46:04.520Z,-1.65
2022-12-12T01:48:56.487Z,-3.02
2022-12-12T01:51:43.327Z,-1.64
2022-12-12T01:54:36.279Z,-1.64
2022-12-12T01:57:32.790Z,-1.64
2022-12-12T02:00:19.369Z,-2.06
2022-12-12T02:03:05.362Z,-1.63
2022-12-12T02:05:58.424Z,-2.16
2022-12-12T02:08:46.225Z,-2.22
2022-12-12T02:11:35.239Z,-2.75
2022-12-12T02:14:28.728Z,-2.66
2022-12-12T02:17:34.948Z,-1.64
2022-12-12T02:21:02.760Z,-1.63
2022-12-12T02:24:06.671Z,-1.68
2022-12-12T02:27:10.402Z,-1.69
2022-12-12T02:30:37.363Z,-1.69
2022-12-12T02:33:37.537Z,-1.70
2022-12-12T02:36:25.873Z,-1.70
2022-12-12T02:39:56.042Z,-1.69
2022-12-12T02:43:20.832Z,-1.66
2022-12-12T02:46:45.506Z,-1.60
2022-12-12T02:49:38.885Z,-2.88
2022-12-12T02:52:25.093Z,-1.69
2022-12-12T02:55:11.221Z,-2.00
2022-12-12T02:57:57.503Z,-2.16
2022-12-12T03:01:11.383Z,-1.86
2022-12-12T03:04:22.223Z,-1.51
2022-12-12T03:07:40.411Z,-1.51
2022-12-12T03:10:38.430Z,-1.51
2022-12-12T03:13:34.796Z,-1.47
2022-12-12T03:16:38.505Z,-1.47
2022-12-12T03:19:35.291Z,-1.43
2022-12-12T03:22:53.941Z,-1.41
2022-12-12T03:25:47.979Z,-1.47
2022-12-12T03:28:37.204Z,-1.37
2022-12-12T03:31:28.279Z,-1.42
2022-12-12T03:34:23.711Z,-1.37
2022-12-12T03:37:15.814Z,-1.38
2022-12-12T03:40:18.816Z,-1.77
2022-12-12T03:43:12.755Z,-2.78
2022-12-12T03:46:12.720Z,-1.44
2022-12-12T03:49:02.643Z,-1.44
2022-12-12T03:51:56.104Z,-1.43
2022-12-12T03:54:52.188Z,-1.50
2022-12-12T03:58:02.675Z,-1.54
2022-12-12T04:00:51.796Z,-1.48
2022-12-12T04:04:09.190Z,-1.49
2022-12-12T04:07:18.720Z,-1.48
2022-12-12T04:10:24.198Z,-1.82
2022-12-12T04:13:34.840Z,-1.49
2022-12-12T04:16:30.004Z,-1.53
2022-12-12T04:20:02.170Z,-2.49
2022-12-12T04:23:18.195Z,-1.56
2022-12-12T04:26:29.976Z,-1.49
2022-12-12T04:29:36.187Z,-1.48
2022-12-12T04:32:28.408Z,-1.52
2022-12-12T04:35:19.887Z,-1.51
2022-12-12T04:38:10.820Z,-2.09
2022-12-12T04:40:59.498Z,-1.45
2022-12-12T04:43:49.288Z,-1.42
2022-12-12T04:46:37.295Z,-1.43
2022-12-12T04:49:27.549Z,-1.48
2022-12-12T04:52:15.347Z,-1.42
2022-12-12T04:55:27.139Z,-1.43
2022-12-12T04:58:13.630Z,-1.40
2022-12-12T05:01:15.789Z,-1.41
2022-12-12T05:04:07.685Z,-1.71
2022-12-12T05:07:00.589Z,-2.86
2022-12-12T05:09:46.333Z,-1.54
2022-12-12T05:12:39.749Z,-2.84
2022-12-12T05:15:27.998Z,-2.16
2022-12-12T05:18:13.724Z,-1.87
2022-12-12T05:20:59.460Z,-1.76
2022-12-12T05:23:45.027Z,-2.47
2022-12-12T05:26:34.009Z,-2.42
2022-12-12T05:29:20.166Z,-1.37
2022-12-12T05:32:05.860Z,-1.43
2022-12-12T05:34:51.692Z,-1.37
2022-12-12T05:37:37.616Z,-1.67
2022-12-12T05:40:24.056Z,-1.33
2022-12-12T05:43:11.161Z,-1.48
2022-12-12T05:45:56.848Z,-1.34
2022-12-12T05:48:42.225Z,-1.74
2022-12-12T05:51:27.738Z,-2.44
2022-12-12T05:54:13.879Z,-1.75
2022-12-12T05:56:59.673Z,-1.72
2022-12-12T05:59:48.936Z,-1.36
2022-12-12T06:02:35.184Z,-1.37
2022-12-12T06:05:21.133Z,-2.45
2022-12-12T06:08:06.878Z,-1.58
2022-12-12T06:10:52.947Z,-1.36
2022-12-12T06:13:38.900Z,-1.91
2022-12-12T06:16:24.936Z,-1.34
2022-12-12T06:19:11.848Z,-1.32
2022-12-12T06:21:57.663Z,-1.34
2022-12-12T06:24:43.067Z,-2.41
2022-12-12T06:27:28.930Z,-1.34
2022-12-12T06:30:15.840Z,-1.66
2022-12-12T06:33:01.941Z,-1.30
2022-12-12T06:36:00.888Z,-2.61
2022-12-12T06:38:46.905Z,-1.31
2022-12-12T06:41:33.378Z,-1.67
2022-12-12T06:44:19.114Z,-1.28
2022-12-12T06:47:04.776Z,-1.67
2022-12-12T06:49:50.599Z,-1.62
2022-12-12T06:52:35.852Z,-1.30
2022-12-12T06:55:21.437Z,-1.18
2022-12-12T06:58:06.918Z,-2.55
2022-12-12T07:00:53.680Z,-2.52
2022-12-12T07:03:39.914Z,-1.84
2022-12-12T07:06:25.967Z,-1.39
2022-12-12T07:09:12.144Z,-2.29
2022-12-12T07:11:57.864Z,-1.17
2022-12-12T07:14:43.400Z,-1.16
2022-12-12T07:17:29.043Z,-1.28
2022-12-12T07:20:15.335Z,-1.51
2022-12-12T07:23:00.856Z,-1.16
2022-12-12T07:25:46.301Z,-1.20
2022-12-12T07:28:32.484Z,-1.40
2022-12-12T07:31:20.838Z,-1.13
2022-12-12T07:34:06.425Z,-2.19
2022-12-12T07:36:51.832Z,-1.10
2022-12-12T07:39:37.549Z,-1.33
2022-12-12T07:42:23.285Z,-1.43
2022-12-12T07:45:12.559Z,-1.87
2022-12-12T07:48:02.721Z,-1.22
2022-12-12T07:50:48.751Z,-1.09
2022-12-12T07:53:34.096Z,-1.55
2022-12-12T07:56:20.389Z,-1.39
2022-12-12T07:59:06.082Z,-1.11
2022-12-12T08:01:51.678Z,-2.13
2022-12-12T08:04:37.429Z,-1.40
2022-12-12T08:07:23.181Z,-1.12
2022-12-12T08:10:09.140Z,-1.06
2022-12-12T08:12:54.653Z,-2.15
2022-12-12T08:15:39.964Z,-2.16
2022-12-12T08:18:25.755Z,-1.36
2022-12-12T08:21:12.661Z,-2.36
2022-12-12T08:23:59.454Z,-0.96
2022-12-12T08:26:45.626Z,-0.96
2022-12-12T08:29:31.955Z,-0.95
2022-12-12T08:32:17.586Z,-1.01
2022-12-12T08:35:03.891Z,-1.25
2022-12-12T08:37:49.467Z,-0.89
2022-12-12T08:40:36.095Z,-1.00
2022-12-12T08:43:21.697Z,-0.96
2022-12-12T08:46:12.318Z,-0.93
2022-12-12T08:49:01.184Z,-2.19
2022-12-12T08:51:47.612Z,-1.33
2022-12-12T08:54:33.806Z,-1.11
2022-12-12T08:57:25.635Z,-1.24
2022-12-12T09:00:12.528Z,-0.71
2022-12-12T09:02:58.608Z,-0.76
2022-12-12T09:05:45.660Z,-1.15
2022-12-12T09:08:31.250Z,-0.70
2022-12-12T09:16:09.016Z,-0.74
2022-12-12T09:18:54.905Z,-1.79
2022-12-12T09:21:40.770Z,-1.26
2022-12-12T09:24:26.711Z,-1.08
2022-12-12T09:27:12.248Z,-0.85
2022-12-12T09:29:57.879Z,-0.93
2022-12-12T09:32:45.166Z,-1.21
2022-12-12T09:35:31.696Z,-0.79
2022-12-12T09:38:19.294Z,-1.11
2022-12-12T09:41:21.712Z,-1.81
2022-12-12T09:44:12.185Z,-1.00
2022-12-12T09:47:06.059Z,-0.72
2022-12-12T09:49:57.233Z,-1.86
2022-12-12T09:52:44.601Z,-1.85
2022-12-12T09:55:42.078Z,-0.70
2022-12-12T09:58:42.155Z,-0.67
2022-12-12T10:01:32.105Z,-0.56
2022-12-12T10:04:31.930Z,-0.51
2022-12-12T10:07:37.817Z,-0.48
2022-12-12T10:10:41.358Z,-0.93
2022-12-12T10:13:30.125Z,-0.50
2022-12-12T10:16:15.984Z,-0.46
2022-12-12T10:19:19.801Z,-0.35
2022-12-12T10:22:15.455Z,-0.54
2022-12-12T10:25:39.688Z,-0.30
2022-12-12T10:28:28.110Z,-0.62
2022-12-12T10:31:24.089Z,-0.89
2022-12-12T10:34:24.583Z,-1.60
2022-12-12T10:37:38.467Z,-0.26
2022-12-12T10:40:33.026Z,-0.24
2022-12-12T10:43:53.588Z,-0.22
2022-12-12T10:46:46.587Z,-0.24
2022-12-12T10:49:32.715Z,-1.56
2022-12-12T10:52:22.226Z,-0.23
2022-12-12T10:55:18.957Z,-0.23
2022-12-12T10:58:06.134Z,-0.25
2022-12-12T11:01:00.134Z,-1.16
2022-12-12T11:03:51.523Z,-0.13
2022-12-12T11:06:45.220Z,-0.16
2022-12-12T11:09:31.953Z,-0.11
2022-12-12T11:12:18.175Z,-0.06
2022-12-12T11:15:17.552Z,-0.04
2022-12-12T11:18:06.310Z,0.06
2022-12-12T11:21:08.556Z,0.09
2022-12-12T11:23:56.585Z,0.12
2022-12-12T11:26:52.932Z,-1.20
2022-12-12T11:29:52.678Z,0.14
2022-12-12T11:32:46.009Z,-0.34
2022-12-12T11:35:36.270Z,0.20
2022-12-12T11:38:31.473Z,-0.05
2022-12-12T11:41:18.015Z,-0.42
2022-12-12T11:44:04.016Z,0.15
2022-12-12T11:46:49.224Z,-1.08
2022-12-12T11:49:46.598Z,-0.11
2022-12-12T11:52:33.637Z,0.19
2022-12-12T11:55:33.001Z,0.28
2022-12-12T11:58:54.423Z,-0.23
2022-12-12T12:01:48.625Z,0.24
2022-12-12T12:05:09.682Z,0.11
2022-12-12T12:08:32.793Z,0.18
2022-12-12T12:11:45.282Z,0.08
2022-12-12T12:15:04.707Z,-1.30
2022-12-12T12:18:11.560Z,0.01
2022-12-12T12:21:09.925Z,0.02
2022-12-12T12:24:07.569Z,0.02
2022-12-12T12:27:28.508Z,-1.42
2022-12-12T12:30:27.001Z,-0.10
2022-12-12T12:33:38.039Z,0.05
2022-12-12T12:36:42.219Z,0.03
2022-12-12T12:39:48.224Z,0.00
2022-12-12T12:42:59.168Z,-0.11
2022-12-12T12:45:49.999Z,0.00
2022-12-12T12:48:50.234Z,-0.70
2022-12-12T12:51:45.462Z,-0.11
2022-12-12T12:54:39.323Z,-0.20
2022-12-12T12:57:39.506Z,0.02
2022-12-12T13:00:30.139Z,0.00
2022-12-12T13:03:24.839Z,0.02
2022-12-12T13:06:18.561Z,-0.50
2022-12-12T13:09:16.222Z,-0.75
2022-12-12T13:12:12.201Z,-0.28
2022-12-12T13:15:12.701Z,-0.05
2022-12-12T13:18:04.398Z,-1.34
2022-12-12T13:21:15.757Z,-1.32
2022-12-12T13:24:19.336Z,-0.07
2022-12-12T13:27:21.092Z,-0.51
2022-12-12T13:30:25.139Z,-1.46
2022-12-12T13:33:42.146Z,-0.16
2022-12-12T13:36:49.531Z,-0.20
2022-12-12T13:39:37.566Z,-0.79
2022-12-12T13:42:23.058Z,-0.53
2022-12-12T13:45:39.703Z,-0.15
2022-12-12T13:48:28.697Z,-0.15
2022-12-12T13:51:33.608Z,-0.17
2022-12-12T13:54:19.351Z,-0.19
2022-12-12T13:57:13.374Z,-0.20
2022-12-12T13:59:59.042Z,-0.15
2022-12-12T14:02:57.970Z,-0.18
2022-12-12T14:05:53.913Z,-0.86
2022-12-12T14:08:48.589Z,-1.47
2022-12-12T14:11:36.864Z,-0.41
2022-12-12T14:14:23.080Z,-0.22
2022-12-12T14:17:21.076Z,-1.34
2022-12-12T14:20:07.545Z,-0.32
2022-12-12T14:22:56.591Z,-0.28
2022-12-12T14:25:43.689Z,-0.57
2022-12-12T14:28:32.415Z,-0.30
2022-12-12T14:31:18.230Z,-0.30
2022-12-12T14:34:04.211Z,-0.34
2022-12-12T14:37:20.944Z,-0.35
2022-12-12T14:40:18.633Z,-0.42
2022-12-12T14:43:18.618Z,-0.46
2022-12-12T14:46:06.663Z,-0.47
2022-12-12T14:49:03.791Z,-0.45
2022-12-12T14:51:51.986Z,-0.44
2022-12-12T14:54:37.411Z,-0.69
2022-12-12T14:57:24.340Z,-0.35
2022-12-12T15:00:19.434Z,-0.90
2022-12-12T15:03:05.977Z,-1.45
2022-12-12T15:06:29.147Z,-0.20
2022-12-12T15:09:19.118Z,-0.74
2022-12-12T15:12:10.862Z,-0.18
2022-12-12T15:15:00.092Z,-0.19
2022-12-12T15:17:49.703Z,-0.21
2022-12-12T15:20:35.882Z,-0.21
2022-12-12T15:23:22.316Z,-0.58
2022-12-12T15:26:17.632Z,-0.19
2022-12-12T15:29:03.526Z,-0.20
2022-12-12T15:31:56.427Z,-1.20
2022-12-12T15:34:45.503Z,-0.47
2022-12-12T15:37:36.864Z,-0.17
2022-12-12T15:40:26.662Z,-0.16
2022-12-12T15:43:15.806Z,-0.49
2022-12-12T15:46:14.148Z,-0.99
2022-12-12T15:49:00.326Z,-0.24
2022-12-12T15:51:46.145Z,-0.15
2022-12-12T15:54:31.736Z,-0.20
2022-12-12T15:57:24.032Z,-0.72
2022-12-12T16:00:44.016Z,-1.53
2022-12-12T16:03:31.072Z,-0.67
2022-12-12T16:06:17.785Z,-0.24
2022-12-12T16:09:12.346Z,-0.28
2022-12-12T16:11:59.041Z,-0.54
2022-12-12T16:14:44.930Z,-0.31
2022-12-12T16:17:31.223Z,-0.60
2022-12-12T16:20:17.047Z,-0.40
2022-12-12T16:23:32.959Z,-0.95
2022-12-12T16:26:19.260Z,-0.93
2022-12-12T16:29:05.253Z,-0.59
2022-12-12T16:31:51.968Z,-0.74
2022-12-12T16:34:39.734Z,-0.79
2022-12-12T16:37:26.021Z,-0.90
2022-12-12T16:40:16.844Z,-2.24
2022-12-12T16:43:09.536Z,-2.52
2022-12-12T16:45:58.105Z,-1.28
2022-12-12T16:48:45.378Z,-1.69
2022-12-12T16:51:33.741Z,-1.35
2022-12-12T16:54:19.166Z,-1.41
2022-12-12T16:57:04.651Z,-1.54
2022-12-12T16:59:50.126Z,-2.75
2022-12-12T17:02:36.364Z,-1.98
2022-12-12T17:05:47.673Z,-1.51
2022-12-12T17:08:33.337Z,-1.53
2022-12-12T17:11:19.253Z,-1.84
2022-12-12T17:14:05.817Z,-1.55
2022-12-12T17:16:53.832Z,-1.56
2022-12-12T17:19:39.246Z,-1.92
2022-12-12T17:22:25.071Z,-1.53
2022-12-12T17:25:12.180Z,-1.53
2022-12-12T17:27:58.735Z,-1.72
2022-12-12T17:30:46.335Z,-1.59
2022-12-12T17:33:35.826Z,-1.46
2022-12-12T17:36:24.084Z,-1.50
2022-12-12T17:39:11.150Z,-1.75
2022-12-12T17:42:00.546Z,-1.38
2022-12-12T17:44:46.678Z,-1.34
2022-12-12T17:47:32.878Z,-1.30
2022-12-12T17:50:19.102Z,-1.53
2022-12-12T17:53:05.130Z,-1.65
2022-12-12T17:55:55.673Z,-2.49
2022-12-12T17:58:48.231Z,-1.10
2022-12-12T18:01:34.287Z,-1.08
2022-12-12T18:04:27.393Z,-1.38
2022-12-12T18:07:14.124Z,-1.43
2022-12-12T18:09:59.958Z,-1.13
2022-12-12T18:12:49.941Z,-2.53
2022-12-12T18:15:37.248Z,-2.26
2022-12-12T18:18:24.132Z,-1.04
2022-12-12T18:21:29.247Z,-1.02
2022-12-12T18:24:23.202Z,-0.99
2022-12-12T18:27:09.928Z,-0.98
2022-12-12T18:29:55.815Z,-1.31
2022-12-12T18:32:40.909Z,-2.24
2022-12-12T18:35:26.214Z,-2.14
2022-12-12T18:38:11.612Z,-0.84
2022-12-12T18:40:57.829Z,-0.87
2022-12-12T18:43:43.613Z,-1.32
2022-12-12T18:46:31.161Z,-2.18
2022-12-12T18:49:18.452Z,-0.99
2022-12-12T18:52:05.510Z,-1.46
2022-12-12T18:54:52.194Z,-2.42
2022-12-12T18:57:37.793Z,-2.42
2022-12-12T19:00:24.409Z,-1.18
2022-12-12T19:03:10.213Z,-0.98
2022-12-12T19:05:56.433Z,-1.07
2022-12-12T19:08:42.590Z,-1.10
2022-12-12T19:11:28.827Z,-2.48
2022-12-12T19:14:16.130Z,-2.39
2022-12-12T19:17:01.897Z,-2.41
2022-12-12T19:19:50.175Z,-1.36
2022-12-12T19:22:51.037Z,-2.25
2022-12-12T19:25:42.593Z,-0.95
2022-12-12T19:28:28.636Z,-0.91
2022-12-12T19:31:16.968Z,-0.86
2022-12-12T19:34:06.089Z,-0.82
2022-12-12T19:36:52.679Z,-1.00
2022-12-12T19:39:38.953Z,-1.08
2022-12-12T19:42:24.970Z,-0.90
2022-12-12T19:45:12.538Z,-0.72
2022-12-12T19:47:58.324Z,-2.33
2022-12-12T19:50:46.593Z,-0.78
2022-12-12T19:53:32.688Z,-0.75
2022-12-12T19:56:27.290Z,-0.75
2022-12-12T19:59:15.594Z,-1.50
2022-12-12T20:02:01.125Z,-1.92
2022-12-12T20:04:47.363Z,-0.84
2022-12-12T20:07:32.826Z,-0.93
2022-12-12T20:10:18.451Z,-0.84
2022-12-12T20:13:07.052Z,-0.80
2022-12-12T20:15:53.624Z,-0.78
2022-12-12T20:18:41.692Z,-0.77
2022-12-12T20:22:00.455Z,-0.75
2022-12-12T20:24:44.379Z,-0.73
2022-12-12T20:27:34.065Z,-0.71
2022-12-12T20:30:19.946Z,-1.04
2022-12-12T20:33:05.737Z,-1.08
2022-12-12T20:35:52.407Z,-0.55
2022-12-12T20:38:49.731Z,-0.54
2022-12-12T20:41:39.799Z,-0.57
2022-12-12T20:44:26.150Z,-0.84
2022-12-12T20:47:14.454Z,-0.56
2022-12-12T20:50:03.181Z,-0.54
2022-12-12T20:52:50.912Z,-1.17
2022-12-12T20:55:37.643Z,-0.59
2022-12-12T20:58:23.151Z,-0.68
2022-12-12T21:01:23.021Z,-1.81
2022-12-12T21:04:09.858Z,-0.52
2022-12-12T21:06:57.612Z,-0.52
2022-12-12T21:09:43.894Z,-0.77
2022-12-12T21:12:29.511Z,-0.69
2022-12-12T21:15:16.601Z,-0.83
2022-12-12T21:18:05.211Z,-0.75
2022-12-12T21:20:50.797Z,-0.41
2022-12-12T21:23:37.851Z,-0.63
2022-12-12T21:26:28.893Z,-0.46
2022-12-12T21:29:16.041Z,-0.56
2022-12-12T21:32:01.173Z,-2.10
2022-12-12T21:34:47.058Z,-0.76
2022-12-12T21:37:38.653Z,-1.07
2022-12-12T21:40:26.267Z,-0.95
2022-12-12T21:43:12.020Z,-2.14
2022-12-12T21:45:58.896Z,-1.12
2022-12-12T21:48:46.721Z,-1.12
2022-12-12T21:51:32.557Z,-1.27
2022-12-12T21:54:17.858Z,-2.70
2022-12-12T21:57:03.908Z,-1.33
2022-12-12T21:59:50.675Z,-1.62
2022-12-12T22:02:36.005Z,-1.29
2022-12-12T22:05:23.450Z,-2.24
2022-12-12T22:08:09.327Z,-2.75
2022-12-12T22:10:54.953Z,-1.39
2022-12-12T22:13:42.497Z,-1.48
2022-12-12T22:16:33.545Z,-1.73
2022-12-12T22:19:19.432Z,-1.74
2022-12-12T22:22:04.871Z,-1.61
2022-12-12T22:24:50.758Z,-1.43
2022-12-12T22:27:36.688Z,-1.48
2022-12-12T22:30:22.324Z,-1.88
2022-12-12T22:33:07.907Z,-1.67
2022-12-12T22:35:54.875Z,-2.93
2022-12-12T22:38:41.024Z,-2.10
2022-12-12T22:41:27.900Z,-1.45
2022-12-12T22:44:16.543Z,-1.98
2022-12-12T22:47:02.419Z,-1.77
2022-12-12T22:49:47.729Z,-2.04
2022-12-12T22:52:34.131Z,-1.65
2022-12-12T22:55:19.593Z,-1.53
2022-12-12T22:58:05.852Z,-1.47
2022-12-12T23:00:53.166Z,-1.44
2022-12-12T23:03:39.665Z,-1.63
2022-12-12T23:06:30.685Z,-2.71
2022-12-12T23:09:20.483Z,-1.66
2022-12-12T23:12:07.716Z,-1.52
2022-12-12T23:14:53.350Z,-1.37
2022-12-12T23:17:38.704Z,-2.80
2022-12-12T23:20:24.182Z,-2.82
2022-12-12T23:23:10.260Z,-1.42
2022-12-12T23:25:56.200Z,-2.68
2022-12-12T23:28:43.003Z,-1.38
2022-12-12T23:31:32.141Z,-1.38
2022-12-12T23:34:24.008Z,-1.28
2022-12-12T23:37:09.856Z,-1.34
2022-12-12T23:39:55.436Z,-1.26
2022-12-12T23:42:40.732Z,-2.70
2022-12-12T23:45:26.326Z,-1.99
2022-12-12T23:48:11.765Z,-1.46
2022-12-12T23:50:58.242Z,-1.48
2022-12-12T23:53:44.160Z,-1.45
2022-12-12T23:56:30.476Z,-1.70
2022-12-12T23:59:18.170Z,-1.88
